Time;durP1;ratioP1;P1;durP2;ratioP2;P2;SDS_P1;SDS_P2;PMS_P1;PMS_P2;Temp;Humidity;BMP_temperature;BMP_pressure;BME280_temperature;BME280_humidity;BME280_pressure;Samples;Min_cycle;Max_cycle;Signal;HPM_P1;HPM_P2
2022/07/10 00:01:19;;;;;;;4.20;3.80;;;;;;;17.46;92.72;98759.28;5073944;28;20686;-69
2022/07/10 00:03:45;;;;;;;4.07;3.77;;;;;;;17.39;94.90;98752.44;5074098;28;20235;-68
2022/07/10 00:06:12;;;;;;;4.07;3.77;;;;;;;17.38;93.69;98748.91;5073653;28;20205;-68
2022/07/10 00:08:39;;;;;;;4.10;3.70;;;;;;;17.39;93.77;98747.91;5074068;28;20228;-68
2022/07/10 00:11:05;;;;;;;6.00;3.40;;;;;;;17.48;93.34;98741.06;5073686;28;20219;-68
2022/07/10 00:13:32;;;;;;;3.83;3.53;;;;;;;17.43;92.92;98741.00;5073610;28;20557;-69
2022/07/10 00:15:58;;;;;;;4.13;3.73;;;;;;;17.40;94.25;98743.34;5073842;28;20291;-69
2022/07/10 00:18:24;;;;;;;3.90;3.60;;;;;;;17.40;94.39;98744.16;5073260;28;20730;-69
2022/07/10 00:20:51;;;;;;;3.80;3.50;;;;;;;17.38;93.90;98737.38;5073760;28;20195;-69
2022/07/10 00:23:17;;;;;;;4.07;3.47;;;;;;;17.43;92.82;98743.69;5073852;28;20271;-68
2022/07/10 00:25:43;;;;;;;4.07;3.60;;;;;;;17.41;93.07;98732.34;5074037;28;20376;-68
2022/07/10 00:28:11;;;;;;;3.70;3.40;;;;;;;17.45;91.66;98730.78;5073362;28;20678;-69
2022/07/10 00:30:38;;;;;;;3.47;3.27;;;;;;;17.43;91.28;98737.47;5073374;28;20563;-69
2022/07/10 00:33:05;;;;;;;4.50;3.57;;;;;;;17.46;91.37;98737.78;5073519;28;20215;-69
2022/07/10 00:35:31;;;;;;;3.77;3.47;;;;;;;17.46;90.81;98732.41;5073752;28;20242;-69
2022/07/10 00:37:58;;;;;;;3.33;3.03;;;;;;;17.58;87.26;98737.69;5073704;28;20299;-68
2022/07/10 00:40:24;;;;;;;3.50;3.20;;;;;;;17.52;89.23;98722.56;5073338;28;20292;-68
2022/07/10 00:42:51;;;;;;;3.30;3.00;;;;;;;17.49;90.27;98731.09;5073222;28;20246;-69
2022/07/10 00:45:18;;;;;;;3.70;3.40;;;;;;;17.49;89.46;98734.63;5073525;28;20211;-69
2022/07/10 00:47:44;;;;;;;4.20;3.77;;;;;;;17.43;89.40;98735.59;5073652;28;20295;-69
2022/07/10 00:50:12;;;;;;;3.80;3.50;;;;;;;17.41;90.18;98743.09;5073528;28;20224;-69
2022/07/10 00:52:39;;;;;;;3.43;3.13;;;;;;;17.44;88.82;98733.72;5073385;28;20216;-69
2022/07/10 00:55:10;;;;;;;3.80;3.50;;;;;;;17.49;87.40;98740.00;5073131;28;20732;-69
2022/07/10 00:57:37;;;;;;;4.07;3.57;;;;;;;17.51;86.13;98729.78;5073477;28;20291;-69
2022/07/10 01:00:04;;;;;;;5.73;3.40;;;;;;;17.44;86.14;98731.84;5073386;28;20307;-68
2022/07/10 01:02:31;;;;;;;3.90;3.60;;;;;;;17.36;88.73;98726.84;5073045;28;20221;-69
2022/07/10 01:04:58;;;;;;;3.80;3.50;;;;;;;17.25;89.87;98726.94;5073427;28;20200;-69
2022/07/10 01:07:25;;;;;;;3.83;3.50;;;;;;;17.37;87.77;98722.31;5073488;28;20204;-69
2022/07/10 01:09:51;;;;;;;3.73;3.47;;;;;;;17.27;89.02;98725.63;5073052;28;20224;-69
2022/07/10 01:12:18;;;;;;;4.23;3.53;;;;;;;17.24;88.84;98726.13;5073331;28;20211;-69
2022/07/10 01:14:44;;;;;;;3.40;3.10;;;;;;;17.29;88.80;98720.03;5073723;28;20218;-69
2022/07/10 01:17:12;;;;;;;4.20;3.80;;;;;;;17.25;88.27;98727.78;5073331;28;20292;-69
2022/07/10 01:19:39;;;;;;;4.97;3.17;;;;;;;17.22;89.06;98719.38;5071843;28;20236;-69
2022/07/10 01:22:05;;;;;;;3.37;3.07;;;;;;;17.18;89.92;98716.34;5073474;28;20232;-68
2022/07/10 01:24:32;;;;;;;3.77;3.40;;;;;;;17.21;88.16;98723.94;5072945;28;20265;-69
2022/07/10 01:26:58;;;;;;;4.60;4.20;;;;;;;17.24;88.24;98719.94;5073302;28;20293;-69
2022/07/10 01:29:25;;;;;;;5.33;3.90;;;;;;;17.20;88.26;98719.59;5073030;28;20224;-69
2022/07/10 01:31:52;;;;;;;4.93;3.97;;;;;;;17.24;88.23;98720.75;5073241;28;20571;-68
2022/07/10 01:34:18;;;;;;;4.13;3.70;;;;;;;17.20;88.61;98716.13;5072801;28;20660;-69
2022/07/10 01:36:45;;;;;;;4.17;3.87;;;;;;;17.23;88.01;98718.31;5073847;28;20291;-69
2022/07/10 01:39:11;;;;;;;4.30;3.90;;;;;;;17.15;89.38;98713.34;5073532;28;20232;-69
2022/07/10 01:41:38;;;;;;;4.00;3.70;;;;;;;17.12;88.26;98711.97;5073590;28;20209;-68
2022/07/10 01:44:04;;;;;;;4.30;3.90;;;;;;;17.14;88.84;98703.69;5072682;28;20243;-69
2022/07/10 01:46:31;;;;;;;4.47;4.03;;;;;;;17.03;89.83;98712.63;5072961;28;20209;-68
2022/07/10 01:48:57;;;;;;;6.03;4.33;;;;;;;17.00;90.66;98708.53;5072554;28;20235;-69
2022/07/10 01:51:24;;;;;;;4.63;4.23;;;;;;;17.03;88.67;98707.25;5072718;28;20679;-69
2022/07/10 01:53:50;;;;;;;5.67;4.67;;;;;;;17.07;87.87;98705.69;5075493;28;20203;-69
2022/07/10 01:56:17;;;;;;;5.63;4.30;;;;;;;17.01;88.77;98710.16;5076701;28;20204;-69
2022/07/10 01:58:44;;;;;;;5.67;4.90;;;;;;;16.98;88.99;98717.91;5076585;28;20254;-68
2022/07/10 02:01:11;;;;;;;5.07;4.67;;;;;;;16.97;88.29;98709.03;5076728;28;20295;-69
2022/07/10 02:06:22;;;;;;;5.63;4.60;;;;;;;16.90;89.82;98719.13;5076431;28;20242;-69
2022/07/10 02:08:49;;;;;;;5.87;5.03;;;;;;;16.83;91.15;98721.13;5076934;28;20325;-69
2022/07/10 02:11:15;;;;;;;6.00;5.40;;;;;;;16.79;91.37;98720.00;5076496;28;20208;-68
2022/07/10 02:13:41;;;;;;;6.60;6.00;;;;;;;16.75;91.59;98718.88;5076416;28;20287;-69
2022/07/10 02:16:08;;;;;;;7.43;5.77;;;;;;;16.69;92.50;98717.13;5076027;28;20667;-69
2022/07/10 02:18:35;;;;;;;6.93;6.33;;;;;;;16.72;92.21;98715.84;5075866;28;20319;-68
2022/07/10 02:21:02;;;;;;;7.23;6.63;;;;;;;16.70;92.75;98716.06;5076091;28;20632;-68
2022/07/10 02:23:28;;;;;;;7.33;6.73;;;;;;;16.64;93.19;98711.69;5076131;28;20229;-69
2022/07/10 02:25:55;;;;;;;8.23;7.43;;;;;;;16.70;93.64;98716.06;5075943;28;20221;-68
2022/07/10 02:28:21;;;;;;;8.70;7.90;;;;;;;16.71;94.60;98719.59;5075978;28;20307;-68
2022/07/10 02:30:47;;;;;;;9.63;8.73;;;;;;;16.73;94.56;98715.59;5076058;28;20208;-69
2022/07/10 02:33:14;;;;;;;10.07;9.00;;;;;;;16.63;95.33;98720.78;5076030;28;20718;-69
2022/07/10 02:35:40;;;;;;;10.97;9.53;;;;;;;16.64;95.75;98716.25;5075992;28;20294;-69
2022/07/10 02:38:07;;;;;;;10.70;9.80;;;;;;;16.56;96.40;98732.75;5075608;28;20742;-69
2022/07/10 02:40:33;;;;;;;11.37;10.27;;;;;;;16.71;94.80;98736.53;5075935;28;20204;-68
2022/07/10 02:42:59;;;;;;;11.23;10.03;;;;;;;16.64;95.61;98738.53;5075653;28;20224;-68
2022/07/10 02:45:26;;;;;;;10.80;9.97;;;;;;;16.71;95.69;98738.38;5075958;28;20204;-69
2022/07/10 02:47:52;;;;;;;11.47;10.43;;;;;;;16.68;94.97;98734.31;5075757;28;20211;-69
2022/07/10 02:50:18;;;;;;;11.50;10.47;;;;;;;16.61;94.82;98732.84;5075812;28;20281;-69
2022/07/10 02:52:45;;;;;;;11.53;10.43;;;;;;;16.56;96.41;98725.47;5075649;28;20570;-69
2022/07/10 02:55:11;;;;;;;11.07;10.07;;;;;;;16.55;96.63;98734.59;5076304;28;20205;-69
2022/07/10 02:57:38;;;;;;;11.30;10.30;;;;;;;16.52;96.66;98745.81;5075541;28;20295;-69
2022/07/10 03:00:05;;;;;;;11.77;10.67;;;;;;;16.49;96.72;98735.56;5075073;28;20234;-68
2022/07/10 03:02:31;;;;;;;11.67;10.67;;;;;;;16.48;97.20;98744.69;5075494;28;20231;-68
2022/07/10 03:04:57;;;;;;;11.07;10.17;;;;;;;16.52;96.94;98743.13;5075081;28;20296;-69
2022/07/10 03:07:24;;;;;;;10.03;9.13;;;;;;;16.72;95.10;98742.69;5075275;28;20384;-68
2022/07/10 03:09:50;;;;;;;11.27;10.17;;;;;;;16.62;95.77;98745.19;5075307;28;20311;-69
2022/07/10 03:12:17;;;;;;;11.30;10.20;;;;;;;16.54;96.68;98742.88;5075137;28;20291;-69
2022/07/10 03:14:43;;;;;;;11.90;10.77;;;;;;;16.53;96.27;98738.59;5075086;28;20204;-69
2022/07/10 03:17:09;;;;;;;11.53;10.50;;;;;;;16.54;95.28;98749.09;5075105;28;20311;-69
2022/07/10 03:19:36;;;;;;;11.67;10.50;;;;;;;16.45;96.17;98739.78;5074699;28;20237;-69
2022/07/10 03:22:02;;;;;;;10.70;9.60;;;;;;;16.39;97.70;98748.78;5075107;28;20212;-69
2022/07/10 03:24:29;;;;;;;10.80;9.70;;;;;;;16.29;98.38;98747.75;5074926;28;20311;-69
2022/07/10 03:26:55;;;;;;;10.53;9.53;;;;;;;16.47;96.29;98748.41;5075305;28;20210;-68
2022/07/10 03:29:22;;;;;;;12.73;10.13;;;;;;;16.32;97.83;98750.75;5074653;28;20798;-68
2022/07/10 03:31:48;;;;;;;10.30;9.40;;;;;;;16.28;97.75;98754.97;5074519;28;20211;-69
2022/07/10 03:34:15;;;;;;;11.20;9.63;;;;;;;16.34;97.29;98746.00;5074411;28;20668;-69
2022/07/10 03:36:41;;;;;;;10.83;9.93;;;;;;;16.41;95.97;98744.00;5074567;28;20300;-69
2022/07/10 03:39:08;;;;;;;11.67;9.43;;;;;;;16.37;96.95;98747.38;5074398;28;20790;-69
2022/07/10 03:41:34;;;;;;;10.17;8.90;;;;;;;16.29;98.01;98747.75;5074120;28;20265;-69
2022/07/10 03:44:01;;;;;;;10.23;9.20;;;;;;;16.23;97.07;98744.16;5074341;28;20231;-69
2022/07/10 03:46:27;;;;;;;10.43;9.53;;;;;;;16.31;96.45;98740.25;5074595;28;20204;-69
2022/07/10 03:48:53;;;;;;;10.23;9.37;;;;;;;16.22;98.42;98747.06;5074318;28;20235;-69
2022/07/10 03:51:20;;;;;;;9.87;8.97;;;;;;;16.18;98.22;98743.22;5074411;28;20567;-69
2022/07/10 03:53:46;;;;;;;10.40;9.43;;;;;;;16.24;97.85;98736.94;5074101;28;20200;-69
2022/07/10 03:57:53;;;;;;;9.60;8.63;;;;;;;16.27;98.51;98748.00;5074462;28;20219;-69
2022/07/10 03:58:58;;;;;;;10.17;9.37;;;;;;;16.24;98.06;98744.97;5074526;28;20232;-69
2022/07/10 04:01:25;;;;;;;9.10;8.40;;;;;;;16.20;98.74;98738.44;5074366;28;20618;-69
2022/07/10 04:03:51;;;;;;;10.33;9.33;;;;;;;16.20;98.63;98741.13;5074491;28;20307;-69
2022/07/10 04:06:18;;;;;;;10.20;8.97;;;;;;;16.19;98.15;98740.31;5074344;28;20295;-69
2022/07/10 04:08:44;;;;;;;9.90;8.90;;;;;;;16.17;99.33;98741.59;5074288;28;20227;-69
2022/07/10 04:11:11;;;;;;;10.00;9.13;;;;;;;16.22;99.54;98742.53;5074102;28;20236;-69
2022/07/10 04:13:38;;;;;;;11.73;10.73;;;;;;;16.24;98.94;98745.78;5073780;28;20683;-68
2022/07/10 04:16:04;;;;;;;10.80;9.70;;;;;;;16.24;99.28;98744.97;5073460;28;20231;-69
2022/07/10 04:18:31;;;;;;;11.23;9.43;;;;;;;16.27;99.13;98747.16;5073567;28;20786;-68
2022/07/10 04:20:57;;;;;;;10.77;9.57;;;;;;;16.22;99.24;98741.69;5074365;28;20280;-69
2022/07/10 04:23:24;;;;;;;10.33;9.03;;;;;;;16.12;100.00;98741.50;5073461;28;20271;-68
2022/07/10 04:25:50;;;;;;;9.13;8.33;;;;;;;16.17;99.14;98741.59;5073667;28;20204;-68
2022/07/10 04:28:16;;;;;;;8.87;8.07;;;;;;;16.22;98.80;98749.75;5073737;28;20674;-69
2022/07/10 04:30:43;;;;;;;14.40;8.80;;;;;;;16.21;98.23;98745.44;5073977;28;20255;-69
2022/07/10 04:33:09;;;;;;;7.97;7.10;;;;;;;16.20;97.70;98744.59;5073655;28;20288;-69
2022/07/10 04:35:35;;;;;;;7.97;7.00;;;;;;;16.39;95.64;98751.44;5073316;28;20303;-68
2022/07/10 04:38:02;;;;;;;8.77;7.70;;;;;;;16.26;96.07;98748.22;5073596;28;20205;-69
2022/07/10 04:40:28;;;;;;;7.27;6.57;;;;;;;16.28;97.27;98749.59;5073831;28;20212;-68
2022/07/10 04:42:55;;;;;;;8.33;6.70;;;;;;;16.24;95.22;98748.44;5073495;28;20299;-68
2022/07/10 04:45:21;;;;;;;7.70;6.60;;;;;;;16.33;94.37;98752.38;5073620;28;20205;-69
2022/07/10 04:47:47;;;;;;;6.20;5.60;;;;;;;16.17;95.63;98742.41;5073931;28;20201;-68
2022/07/10 04:50:14;;;;;;;7.27;6.40;;;;;;;16.17;95.79;98747.78;5073129;28;20671;-68
2022/07/10 04:52:40;;;;;;;7.33;6.20;;;;;;;16.15;95.37;98749.88;5073710;28;20299;-68
2022/07/10 04:55:07;;;;;;;8.77;6.87;;;;;;;16.15;95.26;98757.94;5073218;28;20707;-68
2022/07/10 04:57:34;;;;;;;8.13;6.97;;;;;;;16.12;95.60;98761.09;5073623;28;20308;-69
2022/07/10 05:00:00;;;;;;;6.93;6.33;;;;;;;16.12;97.03;98750.38;5073418;28;20307;-68
2022/07/10 05:02:27;;;;;;;7.00;6.40;;;;;;;16.22;95.83;98750.56;5073166;28;20215;-69
2022/07/10 05:04:53;;;;;;;7.47;6.33;;;;;;;16.12;96.58;98750.38;5073304;28;20315;-68
2022/07/10 05:07:19;;;;;;;7.43;6.50;;;;;;;16.20;95.07;98755.34;5073361;28;20287;-69
2022/07/10 05:09:46;;;;;;;6.80;5.73;;;;;;;16.05;95.93;98760.41;5072846;28;20794;-69
2022/07/10 05:12:12;;;;;;;7.53;5.27;;;;;;;16.31;93.55;98767.09;5073135;28;20215;-68
2022/07/10 05:14:38;;;;;;;8.40;5.23;;;;;;;16.63;91.17;98761.06;5073285;28;20207;-69
2022/07/10 05:17:05;;;;;;;8.97;4.60;;;;;;;16.80;89.25;98769.97;5073348;28;20296;-69
2022/07/10 05:19:31;;;;;;;4.70;4.13;;;;;;;16.78;88.35;98774.75;5072949;28;20242;-69
2022/07/10 05:21:58;;;;;;;4.30;3.90;;;;;;;16.85;88.26;98770.06;5072930;28;20232;-68
2022/07/10 05:24:24;;;;;;;3.53;3.23;;;;;;;17.32;84.93;98773.31;5072909;28;20751;-68
2022/07/10 05:26:51;;;;;;;4.73;3.50;;;;;;;17.74;82.74;98769.94;5074299;28;20295;-68
2022/07/10 05:29:17;;;;;;;5.40;3.00;;;;;;;17.80;80.65;98765.44;5077397;28;20655;-69
2022/07/10 05:31:44;;;;;;;3.47;3.17;;;;;;;17.84;78.22;98778.16;5077251;28;20571;-69
2022/07/10 05:34:10;;;;;;;4.53;3.40;;;;;;;17.71;78.12;98783.88;5077132;28;20197;-68
2022/07/10 05:36:36;;;;;;;3.67;3.37;;;;;;;17.01;83.41;98784.59;5077127;28;20303;-69
2022/07/10 05:39:03;;;;;;;8.37;3.60;;;;;;;16.73;83.04;98790.78;5076958;28;20224;-69
2022/07/10 05:41:32;;;;;;;5.37;2.80;;;;;;;16.86;84.68;98784.28;5076691;28;20204;-68
2022/07/10 05:43:59;;;;;;;3.53;2.90;;;;;;;16.94;82.32;98787.44;5076814;28;20286;-68
2022/07/10 05:46:26;;;;;;;4.13;2.83;;;;;;;16.68;82.98;98788.00;5076926;28;20578;-69
2022/07/10 05:48:52;;;;;;;3.27;2.80;;;;;;;16.46;82.77;98784.34;5076760;28;20331;-69
2022/07/10 05:51:19;;;;;;;4.73;2.70;;;;;;;16.57;81.51;98786.19;5076506;28;20646;-69
2022/07/10 05:53:45;;;;;;;3.83;2.60;;;;;;;16.70;82.63;98791.25;5077002;28;20196;-68
2022/07/10 05:56:11;;;;;;;4.20;2.90;;;;;;;16.80;82.12;98802.22;5076746;28;20212;-68
2022/07/10 05:58:38;;;;;;;2.60;2.37;;;;;;;16.80;80.74;98807.59;5076603;28;20316;-68
2022/07/10 06:01:04;;;;;;;4.07;2.23;;;;;;;16.43;81.17;98802.81;5076390;28;20686;-69
2022/07/10 06:03:31;;;;;;;4.70;2.40;;;;;;;16.41;80.18;98802.22;5076227;28;20667;-70
2022/07/10 06:05:59;;;;;;;4.30;2.60;;;;;;;16.26;81.76;98802.72;5076538;28;20231;-69
2022/07/10 06:08:25;;;;;;;4.77;2.63;;;;;;;16.58;80.96;98803.09;5076382;28;20224;-69
2022/07/10 06:10:52;;;;;;;4.70;2.50;;;;;;;16.70;78.99;98802.00;5076364;28;20300;-70
2022/07/10 06:13:19;;;;;;;2.80;2.20;;;;;;;16.66;79.01;98806.25;5075996;28;20690;-70
2022/07/10 06:15:46;;;;;;;4.27;2.67;;;;;;;16.35;78.80;98795.91;5076402;28;20204;-69
2022/07/10 06:18:12;;;;;;;2.90;2.47;;;;;;;16.58;78.29;98806.63;5075891;28;20633;-70
2022/07/10 06:20:38;;;;;;;3.23;2.20;;;;;;;16.68;76.80;98808.66;5076347;28;20189;-69
2022/07/10 06:23:05;;;;;;;4.90;2.30;;;;;;;16.74;76.03;98813.09;5076158;28;20204;-69
2022/07/10 06:25:31;;;;;;;4.77;2.23;;;;;;;16.41;76.41;98812.94;5076199;28;20687;-70
2022/07/10 06:27:57;;;;;;;3.27;2.10;;;;;;;16.62;77.22;98815.81;5076317;28;20314;-69
2022/07/10 06:30:24;;;;;;;3.50;2.50;;;;;;;16.86;76.35;98814.66;5075757;28;20667;-69
2022/07/10 06:32:50;;;;;;;3.53;2.30;;;;;;;16.85;75.65;98814.91;5076047;28;20291;-70
2022/07/10 06:35:17;;;;;;;3.30;2.13;;;;;;;16.68;75.47;98816.72;5075930;28;20644;-71
2022/07/10 06:37:43;;;;;;;4.60;2.33;;;;;;;16.76;75.48;98822.53;5075570;28;20669;-69
2022/07/10 06:40:14;;;;;;;2.20;2.00;;;;;;;16.66;75.33;98819.66;5074992;28;20402;-70
2022/07/10 06:42:40;;;;;;;5.37;2.17;;;;;;;16.84;74.50;98829.41;5075864;28;20189;-69
2022/07/10 06:45:07;;;;;;;6.80;2.13;;;;;;;16.80;73.27;98822.88;5075557;28;20406;-70
2022/07/10 06:50:17;;;;;;;4.30;2.17;;;;;;;16.54;74.44;98824.25;5075812;28;20247;-70
2022/07/10 06:52:44;;;;;;;4.17;2.27;;;;;;;16.59;71.73;98826.19;5075342;28;20639;-70
2022/07/10 06:55:11;;;;;;;5.50;1.87;;;;;;;16.83;71.15;98825.09;5075474;28;20292;-70
2022/07/10 06:57:39;;;;;;;3.37;2.00;;;;;;;16.34;72.79;98834.56;5075180;28;20208;-71
2022/07/10 07:00:06;;;;;;;3.57;1.80;;;;;;;16.53;72.45;98828.00;5075132;28;20220;-70
2022/07/10 07:02:32;;;;;;;3.03;1.90;;;;;;;16.56;72.83;98830.19;5075646;28;20208;-70
2022/07/10 07:04:58;;;;;;;2.80;2.13;;;;;;;16.17;74.33;98828.28;5075241;28;20227;-70
2022/07/10 07:07:25;;;;;;;4.53;2.10;;;;;;;16.10;75.42;98832.94;5075129;28;20232;-70
2022/07/10 07:09:52;;;;;;;8.30;2.33;;;;;;;16.79;75.14;98830.09;5074977;28;20224;-69
2022/07/10 07:12:18;;;;;;;3.10;2.20;;;;;;;16.65;74.54;98827.97;5075153;28;20264;-70
2022/07/10 07:14:45;;;;;;;2.10;1.80;;;;;;;16.57;70.86;98831.84;5074932;28;20291;-70
2022/07/10 07:17:14;;;;;;;3.40;1.90;;;;;;;16.91;72.79;98830.88;5074790;28;20754;-70
2022/07/10 07:25:10;;;;;;;3.60;1.80;;;;;;;16.25;71.67;98846.69;5074674;28;20668;-70
2022/07/10 07:27:38;;;;;;;3.50;1.80;;;;;;;16.57;71.38;98850.63;5074607;28;20641;-69
2022/07/10 07:30:11;;;;;;;2.80;1.60;;;;;;;16.99;70.42;98848.47;5074573;28;20563;-69
2022/07/10 07:32:39;;;;;;;3.83;1.50;;;;;;;16.75;70.01;98846.94;5074512;28;20769;-69
2022/07/10 07:35:06;;;;;;;2.63;1.63;;;;;;;16.48;71.27;98856.59;5074476;28;20644;-69
2022/07/10 07:37:37;;;;;;;2.70;1.43;;;;;;;16.64;69.43;98851.28;5074363;28;20567;-69
2022/07/10 07:40:06;;;;;;;4.20;1.87;;;;;;;16.77;69.51;98850.19;5074275;28;20710;-69
2022/07/10 07:42:32;;;;;;;4.60;1.93;;;;;;;16.69;70.18;98851.38;5074691;28;20291;-70
2022/07/10 07:44:59;;;;;;;3.67;1.50;;;;;;;16.84;70.06;98848.19;5074389;28;20231;-70
2022/07/10 07:47:26;;;;;;;3.43;1.60;;;;;;;16.80;67.36;98852.41;5074549;28;20296;-70
2022/07/10 07:49:52;;;;;;;3.37;1.80;;;;;;;16.61;68.69;98854.44;5073592;28;20594;-70
2022/07/10 07:52:18;;;;;;;2.17;1.33;;;;;;;16.80;68.28;98849.72;5073592;28;20219;-70
2022/07/10 07:54:45;;;;;;;4.47;1.90;;;;;;;16.37;70.55;98860.09;5074121;28;20295;-70
2022/07/10 07:57:12;;;;;;;1.80;1.50;;;;;;;16.89;68.69;98853.66;5073988;28;20204;-70
2022/07/10 07:59:39;;;;;;;2.63;1.50;;;;;;;17.20;68.98;98848.59;5073880;28;20229;-70
2022/07/10 08:02:06;;;;;;;4.50;1.60;;;;;;;17.39;66.99;98844.69;5074020;28;20204;-70
2022/07/10 08:04:33;;;;;;;4.23;1.73;;;;;;;17.29;65.79;98846.34;5073911;28;20311;-69
2022/07/10 08:07:01;;;;;;;3.77;1.50;;;;;;;17.39;65.41;98846.50;5073119;28;20291;-70
2022/07/10 08:09:27;;;;;;;3.73;1.60;;;;;;;17.04;66.39;98849.38;5073140;28;20225;-71
2022/07/10 08:12:02;;;;;;;2.63;1.40;;;;;;;17.18;65.31;98848.03;5091247;27;20568;-68
2022/07/10 08:14:29;;;;;;;3.00;1.80;;;;;;;16.85;64.49;98845.28;5090451;28;20294;-68
2022/07/10 08:16:55;;;;;;;4.07;1.50;;;;;;;17.04;63.84;98844.00;5090515;28;20207;-69
2022/07/10 08:19:21;;;;;;;3.87;1.70;;;;;;;17.10;62.73;98836.88;5090682;28;20224;-68
2022/07/10 08:21:48;;;;;;;7.03;1.50;;;;;;;17.54;64.79;98836.84;5090376;28;20243;-69
2022/07/10 08:24:15;;;;;;;2.23;1.50;;;;;;;16.97;63.91;98837.97;5090495;28;20299;-69
2022/07/10 08:26:42;;;;;;;2.47;1.50;;;;;;;16.95;63.82;98832.03;5090444;28;20207;-69
2022/07/10 08:29:08;;;;;;;2.80;1.60;;;;;;;17.32;65.65;98835.13;5090476;28;20227;-69
2022/07/10 08:31:34;;;;;;;4.20;1.50;;;;;;;17.48;63.70;98832.47;5090245;28;20318;-69
2022/07/10 08:34:01;;;;;;;3.37;1.50;;;;;;;17.93;62.70;98825.09;5090190;28;20678;-69
2022/07/10 08:36:27;;;;;;;2.97;1.93;;;;;;;17.83;60.81;98824.94;5089954;28;20299;-69
2022/07/10 08:38:55;;;;;;;3.27;1.60;;;;;;;17.52;60.78;98828.25;5090071;28;20224;-69
2022/07/10 08:41:26;;;;;;;3.83;1.70;;;;;;;17.36;61.06;98823.63;5089754;28;20200;-69
2022/07/10 08:43:53;;;;;;;2.77;1.10;;;;;;;17.48;60.46;98824.41;5090261;28;20239;-69
2022/07/10 08:46:19;;;;;;;2.90;1.30;;;;;;;17.79;58.73;98831.91;5090248;28;20291;-69
2022/07/10 08:48:50;;;;;;;3.73;1.40;;;;;;;17.76;57.70;98828.84;5089617;28;20306;-69
2022/07/10 08:51:42;;;;;;;3.13;1.37;;;;;;;17.80;58.96;98822.75;5090171;28;20302;-70
2022/07/10 08:54:09;;;;;;;2.83;1.50;;;;;;;17.68;60.09;98815.81;5088578;28;20734;-69
2022/07/10 08:56:36;;;;;;;2.20;1.40;;;;;;;17.82;60.41;98826.00;5089889;28;20207;-70
2022/07/10 08:59:04;;;;;;;3.40;1.50;;;;;;;17.80;59.98;98827.31;5090000;28;20604;-69
2022/07/10 09:01:32;;;;;;;3.70;1.33;;;;;;;17.98;60.72;98824.34;5089846;28;20196;-69
2022/07/10 09:03:59;;;;;;;2.53;1.00;;;;;;;18.21;59.65;98827.66;5089961;28;20313;-69
2022/07/10 09:06:25;;;;;;;2.87;1.50;;;;;;;18.05;59.39;98827.69;5089549;28;20215;-69
2022/07/10 09:09:07;;;;;;;5.80;1.47;;;;;;;18.30;58.71;98828.84;5089714;28;20568;-69
2022/07/10 09:11:34;;;;;;;4.03;1.40;;;;;;;18.21;58.03;98834.91;5089285;28;20721;-69
2022/07/10 09:14:04;;;;;;;2.20;1.17;;;;;;;18.28;57.45;98833.66;5089460;28;20339;-69
2022/07/10 09:16:32;;;;;;;2.67;1.50;;;;;;;17.94;57.74;98836.66;5089289;28;20204;-69
2022/07/10 09:19:20;;;;;;;3.23;1.10;;;;;;;18.16;57.85;98819.50;5090361;28;20293;-69
2022/07/10 09:21:49;;;;;;;3.10;1.60;;;;;;;18.34;54.89;98826.50;5084659;28;20635;-69
2022/07/10 09:24:19;;;;;;;1.53;1.20;;;;;;;17.97;55.22;98833.50;5076081;28;20295;-70
2022/07/10 09:26:58;;;;;;;2.80;1.37;;;;;;;18.35;54.94;98834.31;5075892;28;20299;-69
2022/07/10 09:29:25;;;;;;;1.67;1.00;;;;;;;18.58;56.46;98830.56;5075978;28;20307;-69
2022/07/10 09:32:02;;;;;;;2.30;1.30;;;;;;;18.27;53.60;98836.63;5075480;28;20216;-70
2022/07/10 09:34:41;;;;;;;2.23;1.17;;;;;;;18.12;55.02;98845.28;5075945;28;20191;-69
2022/07/10 09:37:20;;;;;;;5.13;1.27;;;;;;;17.34;55.51;98847.25;5076147;28;20211;-69
2022/07/10 09:40:08;;;;;;;2.47;1.27;;;;;;;17.35;55.21;98842.69;5075647;28;20230;-70
2022/07/10 09:42:37;;;;;;;3.37;1.37;;;;;;;17.81;54.53;98839.69;5075485;28;20216;-69
2022/07/10 09:45:13;;;;;;;4.53;1.40;;;;;;;17.94;54.28;98834.81;5075603;28;20298;-69
2022/07/10 09:47:44;;;;;;;2.50;1.30;;;;;;;18.30;55.08;98836.09;5075627;28;20298;-69
2022/07/10 09:50:27;;;;;;;4.00;1.30;;;;;;;18.20;55.64;98830.59;5074957;28;20232;-69
2022/07/10 09:52:59;;;;;;;3.73;1.30;;;;;;;17.87;53.92;98842.22;5075186;28;20283;-69
2022/07/10 09:55:30;;;;;;;2.17;1.27;;;;;;;18.25;53.46;98836.03;5075457;28;20280;-70
2022/07/10 09:57:59;;;;;;;2.53;1.10;;;;;;;18.35;52.23;98836.19;5075068;28;20644;-70
2022/07/10 10:00:36;;;;;;;3.10;1.30;;;;;;;17.99;53.86;98840.25;5075001;28;20537;-70
2022/07/10 10:03:05;;;;;;;2.57;1.27;;;;;;;18.11;53.91;98832.06;5074986;28;20593;-69
2022/07/10 10:05:44;;;;;;;2.13;0.90;;;;;;;18.45;53.12;98837.16;5075080;28;20296;-69
2022/07/10 10:08:20;;;;;;;3.80;1.37;;;;;;;18.45;54.52;98837.16;5075424;28;20208;-69
2022/07/10 10:10:50;;;;;;;2.67;1.30;;;;;;;18.26;53.82;98834.97;5073538;28;20228;-69
2022/07/10 10:13:22;;;;;;;2.07;1.27;;;;;;;18.56;53.88;98836.22;5075250;28;20211;-70
2022/07/10 10:15:50;;;;;;;1.90;1.20;;;;;;;19.00;53.22;98832.38;5074905;28;20276;-69
2022/07/10 10:18:27;;;;;;;3.53;1.17;;;;;;;19.23;52.15;98815.94;5074768;28;20318;-70
2022/07/10 10:20:53;;;;;;;4.00;1.43;;;;;;;19.05;51.09;98821.66;5074833;28;20279;-70
2022/07/10 10:23:22;;;;;;;2.23;1.30;;;;;;;19.38;50.89;98824.19;5074258;28;20602;-69
2022/07/10 10:25:53;;;;;;;2.87;1.20;;;;;;;18.90;51.01;98824.22;5074809;28;20213;-69
2022/07/10 10:28:23;;;;;;;2.97;1.30;;;;;;;19.16;54.06;98811.78;5074135;28;20282;-70
2022/07/10 10:30:52;;;;;;;1.37;1.10;;;;;;;19.81;50.65;98812.34;5074711;28;20315;-69
2022/07/10 10:33:34;;;;;;;1.47;1.10;;;;;;;19.48;49.80;98811.84;5073142;28;20207;-70
2022/07/10 10:36:05;;;;;;;3.30;1.23;;;;;;;19.89;51.04;98805.69;5074253;28;20299;-70
2022/07/10 10:38:47;;;;;;;1.70;0.90;;;;;;;19.83;50.39;98807.53;5073873;28;20775;-70
2022/07/10 10:41:27;;;;;;;4.13;1.43;;;;;;;20.10;49.13;98805.56;5074191;28;20219;-70
2022/07/10 10:44:10;;;;;;;2.47;1.27;;;;;;;19.51;49.83;98801.34;5074599;28;20212;-69
2022/07/10 10:46:54;;;;;;;3.20;1.47;;;;;;;18.90;50.38;98799.13;5074216;28;20200;-70
2022/07/10 10:49:25;;;;;;;2.87;1.40;;;;;;;19.64;49.85;98803.63;5074116;28;20278;-69
2022/07/10 10:52:02;;;;;;;4.93;1.20;;;;;;;19.41;49.99;98795.88;5074606;28;20365;-69
2022/07/10 10:54:30;;;;;;;4.67;1.30;;;;;;;20.22;47.19;98792.69;5074200;28;20228;-70
2022/07/10 10:57:17;;;;;;;4.80;1.57;;;;;;;19.98;49.02;98801.41;5074095;28;20204;-70
2022/07/10 10:59:55;;;;;;;4.07;1.60;;;;;;;19.63;49.78;98800.09;5073821;28;20286;-69
2022/07/10 11:02:22;;;;;;;3.47;1.37;;;;;;;19.30;49.70;98811.16;5073407;28;20562;-69
2022/07/10 11:04:50;;;;;;;2.63;1.30;;;;;;;18.94;49.71;98801.06;5073479;28;20308;-69
2022/07/10 11:07:54;;;;;;;2.20;1.17;;;;;;;19.62;48.67;98796.84;5073536;28;20276;-69
2022/07/10 11:10:36;;;;;;;2.70;1.30;;;;;;;19.53;48.60;98804.59;5073263;28;20216;-69
2022/07/10 11:13:04;;;;;;;5.60;1.50;;;;;;;19.98;47.15;98794.13;5073560;28;20275;-70
2022/07/10 11:15:32;;;;;;;3.20;1.07;;;;;;;20.40;46.47;98797.63;5073607;28;20204;-69
2022/07/10 11:18:00;;;;;;;3.20;1.50;;;;;;;20.14;46.53;98795.03;5073506;28;20659;-69
2022/07/10 11:20:26;;;;;;;2.60;1.20;;;;;;;20.17;47.58;98789.13;5073630;28;20287;-70
2022/07/10 11:22:53;;;;;;;1.10;0.97;;;;;;;19.75;47.24;98807.22;5073717;28;20747;-70
2022/07/10 11:25:44;;;;;;;1.33;1.00;;;;;;;19.69;48.29;98799.06;5073438;28;20231;-69
2022/07/10 11:28:18;;;;;;;2.20;1.30;;;;;;;19.77;46.45;98788.88;5073493;28;20188;-70
2022/07/10 11:30:48;;;;;;;2.43;1.23;;;;;;;20.05;46.42;98793.88;5072959;28;20765;-69
2022/07/10 11:33:15;;;;;;;3.37;1.20;;;;;;;20.40;47.72;98786.00;5073645;28;20295;-69
2022/07/10 11:35:44;;;;;;;2.63;1.20;;;;;;;20.63;45.29;98782.84;5072223;28;20201;-69
2022/07/10 11:38:11;;;;;;;3.07;1.00;;;;;;;20.35;43.29;98792.19;5073441;28;20228;-70
2022/07/10 11:40:38;;;;;;;3.23;1.30;;;;;;;20.36;45.38;98785.72;5073353;28;20215;-69
2022/07/10 11:43:06;;;;;;;3.80;1.30;;;;;;;19.88;46.30;98790.53;5073191;28;20208;-69
2022/07/10 11:45:36;;;;;;;2.63;1.20;;;;;;;20.00;47.29;98788.47;5072421;28;20211;-69
2022/07/10 11:48:04;;;;;;;2.47;1.07;;;;;;;20.56;45.23;98782.25;5072430;28;20208;-69